createdAt,value
2019-04-01T00:00:19.354Z,8.57
2019-04-01T00:02:45.286Z,8.60
2019-04-01T00:05:11.749Z,8.62
2019-04-01T00:07:37.875Z,8.61
2019-04-01T00:10:04.126Z,8.59
2019-04-01T00:12:30.263Z,8.63
2019-04-01T00:14:56.426Z,8.63
2019-04-01T00:17:22.560Z,8.62
2019-04-01T00:19:48.607Z,8.68
2019-04-01T00:22:14.732Z,8.70
2019-04-01T00:24:40.770Z,8.63
2019-04-01T00:27:06.899Z,8.49
2019-04-01T00:29:33.038Z,8.44
2019-04-01T00:31:59.165Z,8.30
2019-04-01T00:34:25.187Z,8.30
2019-04-01T00:36:51.306Z,8.28
2019-04-01T00:39:17.421Z,8.32
2019-04-01T00:44:29.789Z,8.35
2019-04-01T00:46:55.958Z,8.36
2019-04-01T00:49:21.996Z,8.37
2019-04-01T00:51:48.114Z,8.37
2019-04-01T00:54:14.234Z,8.25
2019-04-01T00:56:40.364Z,8.22
2019-04-01T00:59:06.485Z,8.19
2019-04-01T01:01:32.712Z,8.10
2019-04-01T01:03:58.739Z,8.09
2019-04-01T01:06:24.971Z,8.05
2019-04-01T01:08:51.104Z,7.97
2019-04-01T01:11:17.225Z,7.98
2019-04-01T01:13:43.365Z,7.87
2019-04-01T01:16:09.514Z,7.86
2019-04-01T01:18:35.632Z,7.87
2019-04-01T01:21:01.762Z,7.85
2019-04-01T01:23:27.789Z,7.78
2019-04-01T01:25:53.940Z,7.77
2019-04-01T01:28:19.964Z,7.75
2019-04-01T01:30:46.114Z,7.78
2019-04-01T01:33:12.251Z,7.79
2019-04-01T01:35:38.438Z,7.71
2019-04-01T01:38:04.595Z,7.80
2019-04-01T01:40:32.078Z,7.88
2019-04-01T01:42:58.247Z,7.91
2019-04-01T01:45:24.433Z,7.82
2019-04-01T01:47:50.548Z,7.74
2019-04-01T01:50:16.698Z,7.73
2019-04-01T01:52:44.241Z,7.80
2019-04-01T01:55:10.407Z,7.77
2019-04-01T01:57:36.723Z,7.75
2019-04-01T02:00:03.480Z,7.71
2019-04-01T02:02:29.496Z,7.60
2019-04-01T02:04:55.544Z,7.46
2019-04-01T02:07:21.587Z,7.50
2019-04-01T02:09:47.716Z,7.54
2019-04-01T02:12:13.927Z,7.47
2019-04-01T02:14:40.083Z,7.42
2019-04-01T02:17:06.229Z,7.42
2019-04-01T02:19:32.378Z,7.46
2019-04-01T02:21:58.433Z,7.46
2019-04-01T02:24:24.344Z,7.42
2019-04-01T02:26:50.409Z,7.42
2019-04-01T02:29:16.543Z,7.38
2019-04-01T02:31:42.603Z,7.22
2019-04-01T02:34:08.645Z,7.19
2019-04-01T02:36:34.673Z,7.17
2019-04-01T02:39:00.789Z,7.22
2019-04-01T02:41:26.821Z,7.16
2019-04-01T02:43:52.963Z,7.14
2019-04-01T02:46:19.078Z,7.15
2019-04-01T02:48:45.260Z,7.08
2019-04-01T02:51:11.385Z,7.00
2019-04-01T02:53:37.517Z,6.92
2019-04-01T02:56:03.704Z,6.86
2019-04-01T02:58:29.821Z,6.90
2019-04-01T03:00:55.969Z,6.94
2019-04-01T03:03:22.095Z,6.95
2019-04-01T03:05:48.341Z,6.93
2019-04-01T03:08:14.339Z,6.88
2019-04-01T03:10:44.826Z,6.78
2019-04-01T03:13:08.496Z,6.72
2019-04-01T03:15:34.651Z,6.47
2019-04-01T03:18:00.801Z,6.43
2019-04-01T03:20:26.936Z,6.36
2019-04-01T03:22:53.088Z,6.31
2019-04-01T03:25:19.218Z,6.35
2019-04-01T03:27:45.341Z,6.16
2019-04-01T03:30:11.599Z,6.13
2019-04-01T03:32:44.267Z,6.11
2019-04-01T03:35:05.886Z,6.15
2019-04-01T03:37:31.983Z,6.08
2019-04-01T03:39:58.118Z,6.04
2019-04-01T03:42:24.265Z,5.87
2019-04-01T03:44:54.826Z,5.84
2019-04-01T03:47:18.765Z,5.89
2019-04-01T03:49:44.990Z,5.78
2019-04-01T03:52:11.146Z,5.76
2019-04-01T03:54:37.300Z,5.74
2019-04-01T03:57:03.562Z,5.77
2019-04-01T03:59:29.701Z,5.79
2019-04-01T04:01:55.766Z,5.81
2019-04-01T04:04:21.890Z,5.70
2019-04-01T04:06:48.061Z,5.80
2019-04-01T04:09:14.069Z,5.75
2019-04-01T04:11:40.225Z,5.65
2019-04-01T04:14:06.257Z,5.66
2019-04-01T04:16:32.400Z,5.58
2019-04-01T04:18:58.530Z,5.56
2019-04-01T04:21:24.694Z,5.53
2019-04-01T04:23:50.833Z,5.50
2019-04-01T04:26:16.968Z,5.51
2019-04-01T04:28:43.027Z,5.53
2019-04-01T04:31:09.157Z,5.55
2019-04-01T04:33:35.291Z,5.63
2019-04-01T04:36:01.302Z,5.70
2019-04-01T04:38:27.486Z,5.74
2019-04-01T04:40:53.603Z,5.68
2019-04-01T04:43:19.810Z,5.68
2019-04-01T04:45:45.833Z,5.69
2019-04-01T04:48:11.965Z,5.71
2019-04-01T04:50:38.108Z,5.66
2019-04-01T04:53:04.355Z,5.56
2019-04-01T04:55:30.517Z,5.57
2019-04-01T04:57:56.649Z,5.51
2019-04-01T05:00:22.814Z,5.42
2019-04-01T05:02:49.013Z,5.35
2019-04-01T05:05:15.152Z,5.34
2019-04-01T05:07:41.169Z,5.31
2019-04-01T05:10:07.701Z,5.19
2019-04-01T05:12:33.834Z,5.18
2019-04-01T05:14:59.967Z,5.18
2019-04-01T05:17:26.230Z,5.10
2019-04-01T05:19:52.393Z,5.05
2019-04-01T05:22:20.437Z,4.98
2019-04-01T05:24:46.820Z,5.00
2019-04-01T05:27:13.755Z,4.95
2019-04-01T05:29:40.598Z,4.86
2019-04-01T05:32:10.316Z,4.80
2019-04-01T05:34:38.274Z,4.80
2019-04-01T05:37:04.552Z,4.72
2019-04-01T05:39:30.870Z,4.69
2019-04-01T05:41:57.034Z,4.69
2019-04-01T05:44:23.244Z,4.79
2019-04-01T05:46:49.441Z,4.79
2019-04-01T05:49:15.594Z,4.82
2019-04-01T05:51:41.838Z,4.95
2019-04-01T05:54:07.973Z,4.92
2019-04-01T05:56:34.297Z,4.77
2019-04-01T05:59:00.457Z,4.79
2019-04-01T06:01:28.516Z,4.79
2019-04-01T06:03:54.864Z,4.77
2019-04-01T06:06:23.448Z,4.83
2019-04-01T06:08:50.855Z,4.76
2019-04-01T06:11:17.027Z,4.71
2019-04-01T06:13:43.304Z,4.75
2019-04-01T06:16:09.633Z,4.69
2019-04-01T06:18:35.793Z,4.80
2019-04-01T06:21:01.976Z,4.81
2019-04-01T06:23:28.215Z,4.73
2019-04-01T06:25:54.521Z,4.73
2019-04-01T06:28:20.672Z,4.79
2019-04-01T06:30:48.253Z,4.78
2019-04-01T06:33:14.402Z,4.82
2019-04-01T06:35:41.916Z,4.89
2019-04-01T06:38:08.063Z,4.90
2019-04-01T06:40:34.217Z,4.93
2019-04-01T06:43:01.559Z,4.97
2019-04-01T06:45:27.747Z,5.03
2019-04-01T06:47:53.864Z,5.11
2019-04-01T06:50:20.124Z,5.22
2019-04-01T06:52:46.244Z,5.23
2019-04-01T06:55:12.472Z,5.29
2019-04-01T06:57:38.605Z,5.24
2019-04-01T07:00:04.748Z,5.34
2019-04-01T07:02:30.934Z,5.40
2019-04-01T07:04:57.075Z,5.42
2019-04-01T07:07:23.339Z,5.49
2019-04-01T07:09:50.751Z,5.53
2019-04-01T07:12:17.227Z,5.53
2019-04-01T07:14:43.450Z,5.61
2019-04-01T07:17:09.799Z,5.70
2019-04-01T07:19:35.934Z,5.73
2019-04-01T07:22:02.075Z,5.78
2019-04-01T07:24:28.229Z,5.86
2019-04-01T07:26:56.434Z,5.87
2019-04-01T07:29:23.051Z,5.94
2019-04-01T07:31:49.177Z,5.98
2019-04-01T07:34:15.299Z,6.03
2019-04-01T07:36:41.337Z,6.09
2019-04-01T07:39:07.459Z,6.14
2019-04-01T07:41:33.595Z,6.29
2019-04-01T07:44:01.136Z,6.37
2019-04-01T07:46:27.296Z,6.41
2019-04-01T07:48:53.444Z,6.39
2019-04-01T07:51:20.484Z,6.36
2019-04-01T07:53:46.615Z,6.34
2019-04-01T07:56:12.773Z,6.43
2019-04-01T07:58:38.930Z,6.45
2019-04-01T08:01:05.043Z,6.39
2019-04-01T08:03:32.855Z,6.31
2019-04-01T08:05:59.108Z,6.41
2019-04-01T08:08:25.264Z,6.40
2019-04-01T08:10:52.494Z,6.35
2019-04-01T08:13:18.625Z,6.35
2019-04-01T08:15:45.155Z,6.43
2019-04-01T08:18:11.296Z,6.45
2019-04-01T08:20:37.415Z,6.49
2019-04-01T08:23:03.597Z,6.52
2019-04-01T08:25:29.719Z,6.61
2019-04-01T08:27:55.830Z,6.73
2019-04-01T08:30:22.031Z,6.74
2019-04-01T08:32:48.155Z,6.64
2019-04-01T08:35:14.331Z,6.63
2019-04-01T08:37:40.874Z,6.69
2019-04-01T08:40:08.420Z,6.68
2019-04-01T08:42:34.539Z,6.66
2019-04-01T08:45:00.662Z,6.69
2019-04-01T08:47:26.814Z,6.65
2019-04-01T08:49:52.956Z,6.66
2019-04-01T08:52:21.254Z,6.70
2019-04-01T08:54:47.398Z,6.69
2019-04-01T08:57:14.157Z,6.75
2019-04-01T08:59:40.297Z,6.75
2019-04-01T09:02:17.014Z,6.73
2019-04-01T09:04:35.778Z,6.78
2019-04-01T09:07:02.061Z,6.87
2019-04-01T09:09:29.061Z,6.90
2019-04-01T09:11:56.332Z,6.96
2019-04-01T09:14:22.477Z,6.96
2019-04-01T09:16:48.910Z,6.99
2019-04-01T09:19:15.036Z,7.14
2019-04-01T09:21:41.233Z,7.06
2019-04-01T09:24:07.415Z,7.11
2019-04-01T09:26:33.533Z,7.10
2019-04-01T09:28:59.714Z,7.06
2019-04-01T09:31:25.855Z,7.14
2019-04-01T09:33:51.911Z,7.17
2019-04-01T09:36:18.152Z,7.17
2019-04-01T09:38:44.301Z,7.27
2019-04-01T09:41:13.322Z,7.26
2019-04-01T09:43:38.436Z,7.28
2019-04-01T09:46:04.567Z,7.42
2019-04-01T09:48:31.268Z,7.49
2019-04-01T09:50:57.399Z,7.45
2019-04-01T09:53:23.519Z,7.41
2019-04-01T09:55:49.544Z,7.36
2019-04-01T09:58:15.702Z,7.38
2019-04-01T10:00:41.945Z,7.40
2019-04-01T10:03:08.109Z,7.51
2019-04-01T10:05:34.231Z,7.53
2019-04-01T10:08:00.378Z,7.55
2019-04-01T10:10:26.505Z,7.62
2019-04-01T10:12:52.633Z,7.70
2019-04-01T10:15:18.754Z,7.83
2019-04-01T10:17:44.944Z,7.83
2019-04-01T10:20:11.194Z,7.82
2019-04-01T10:22:37.344Z,7.76
2019-04-01T10:25:05.177Z,7.83
2019-04-01T10:27:31.505Z,7.91
2019-04-01T10:29:58.638Z,7.93
2019-04-01T10:32:24.745Z,7.93
2019-04-01T10:34:50.989Z,7.99
2019-04-01T10:37:17.022Z,7.95
2019-04-01T10:39:43.140Z,8.00
2019-04-01T10:42:09.255Z,8.03
2019-04-01T10:44:35.414Z,8.10
2019-04-01T10:47:01.860Z,8.14
2019-04-01T10:49:28.226Z,8.22
2019-04-01T10:51:54.218Z,8.35
2019-04-01T10:54:20.413Z,8.38
2019-04-01T10:56:46.616Z,8.37
2019-04-01T10:59:12.835Z,8.35
2019-04-01T11:01:41.603Z,8.28
2019-04-01T11:04:07.972Z,8.31
2019-04-01T11:06:34.307Z,8.54
2019-04-01T11:09:00.529Z,8.76
2019-04-01T11:11:27.342Z,8.82
2019-04-01T11:13:54.077Z,8.85
2019-04-01T11:16:20.554Z,8.86
2019-04-01T11:18:46.818Z,8.82
2019-04-01T11:21:13.023Z,8.86
2019-04-01T11:23:39.594Z,8.83
2019-04-01T11:26:05.721Z,8.75
2019-04-01T11:28:31.829Z,8.75
2019-04-01T11:30:58.002Z,8.81
2019-04-01T11:33:24.464Z,8.86
2019-04-01T11:35:50.639Z,8.91
2019-04-01T11:38:16.682Z,8.99
2019-04-01T11:40:43.995Z,9.10
2019-04-01T11:43:10.209Z,9.15
2019-04-01T11:45:36.360Z,9.16
2019-04-01T11:48:02.496Z,9.13
2019-04-01T11:50:28.759Z,9.01
2019-04-01T11:52:54.898Z,8.98
2019-04-01T11:55:25.123Z,8.99
2019-04-01T11:57:49.071Z,8.93
2019-04-01T12:00:17.032Z,9.06
2019-04-01T12:02:43.203Z,9.10
2019-04-01T12:05:09.510Z,9.15
2019-04-01T12:07:35.672Z,9.16
2019-04-01T12:10:02.124Z,9.13
2019-04-01T12:12:28.340Z,9.16
2019-04-01T12:14:54.999Z,9.22
2019-04-01T12:17:21.140Z,9.31
2019-04-01T12:19:57.199Z,9.30
2019-04-01T12:22:23.386Z,9.44
2019-04-01T12:24:49.635Z,9.53
2019-04-01T12:27:16.344Z,9.59
2019-04-01T12:29:42.731Z,9.68
2019-04-01T12:32:08.867Z,9.79
2019-04-01T12:34:34.885Z,9.67
2019-04-01T12:37:01.036Z,9.63
2019-04-01T12:39:27.178Z,9.58
2019-04-01T12:41:53.305Z,9.63
2019-04-01T12:44:19.449Z,9.72
2019-04-01T12:46:45.661Z,9.82
2019-04-01T12:49:11.783Z,9.83
2019-04-01T12:51:40.666Z,9.87
2019-04-01T12:54:07.014Z,9.93
2019-04-01T12:56:33.140Z,9.85
2019-04-01T12:58:59.378Z,9.72
2019-04-01T13:01:25.546Z,9.74
2019-04-01T13:03:51.791Z,9.78
2019-04-01T13:06:20.584Z,9.69
2019-04-01T13:08:47.801Z,9.53
2019-04-01T13:11:13.945Z,9.50
2019-04-01T13:13:40.095Z,9.59
2019-04-01T13:16:09.013Z,9.57
2019-04-01T13:18:34.257Z,9.50
2019-04-01T13:21:00.406Z,9.59
2019-04-01T13:23:40.039Z,9.70
2019-04-01T13:26:03.578Z,9.89
2019-04-01T13:28:29.801Z,9.91
2019-04-01T13:30:55.931Z,9.73
2019-04-01T13:33:22.261Z,9.71
2019-04-01T13:35:48.533Z,9.75
2019-04-01T13:38:16.480Z,9.71
2019-04-01T13:40:44.201Z,9.81
2019-04-01T13:43:11.465Z,9.92
2019-04-01T13:45:38.641Z,9.86
2019-04-01T13:48:05.020Z,9.72
2019-04-01T13:50:31.746Z,9.71
2019-04-01T13:52:58.639Z,9.70
2019-04-01T13:55:24.915Z,9.66
2019-04-01T13:57:52.412Z,9.58
2019-04-01T14:00:20.278Z,9.61
2019-04-01T14:02:46.639Z,9.54
2019-04-01T14:05:13.392Z,9.53
2019-04-01T14:07:40.612Z,9.57
2019-04-01T14:10:06.834Z,9.60
2019-04-01T14:12:32.985Z,9.50
2019-04-01T14:14:59.149Z,9.56
2019-04-01T14:17:25.296Z,9.59
2019-04-01T14:19:51.409Z,9.64
2019-04-01T14:22:17.570Z,9.63
2019-04-01T14:24:45.209Z,9.61
2019-04-01T14:27:12.045Z,9.63
2019-04-01T14:29:38.159Z,9.64
2019-04-01T14:32:04.528Z,9.61
2019-04-01T14:34:31.136Z,9.70
2019-04-01T14:36:57.262Z,9.57
2019-04-01T14:39:23.434Z,9.58
2019-04-01T14:41:49.704Z,9.62
2019-04-01T14:44:15.838Z,9.60
2019-04-01T14:46:43.039Z,9.62
2019-04-01T14:49:11.420Z,9.66
2019-04-01T14:51:37.558Z,9.63
2019-04-01T14:54:03.697Z,9.65
2019-04-01T14:56:29.860Z,9.73
2019-04-01T14:58:55.980Z,9.81
2019-04-01T15:01:22.233Z,9.84
2019-04-01T15:03:48.264Z,9.88
2019-04-01T15:06:14.421Z,9.86
2019-04-01T15:08:40.655Z,9.71
2019-04-01T15:11:12.322Z,9.67
2019-04-01T15:13:39.277Z,9.59
2019-04-01T15:16:05.719Z,9.55
2019-04-01T15:18:34.326Z,9.53
2019-04-01T15:21:00.098Z,9.59
2019-04-01T15:23:27.433Z,9.58
2019-04-01T15:25:54.511Z,9.54
2019-04-01T15:28:20.829Z,9.51
2019-04-01T15:30:47.036Z,9.46
2019-04-01T15:33:13.160Z,9.46
2019-04-01T15:35:39.277Z,9.47
2019-04-01T15:38:05.431Z,9.49
2019-04-01T15:40:57.993Z,9.55
2019-04-01T15:43:22.471Z,9.41
2019-04-01T15:45:48.683Z,9.44
2019-04-01T15:48:14.912Z,9.39
2019-04-01T15:50:41.159Z,9.42
2019-04-01T15:53:07.292Z,9.47
2019-04-01T15:55:33.473Z,9.50
2019-04-01T15:57:59.718Z,9.46
2019-04-01T16:00:25.943Z,9.44
2019-04-01T16:02:52.086Z,9.45
2019-04-01T16:05:18.257Z,9.40
2019-04-01T16:07:44.394Z,9.40
2019-04-01T16:10:11.061Z,9.36
2019-04-01T16:12:37.221Z,9.42
2019-04-01T16:15:27.801Z,9.44
2019-04-01T16:17:54.160Z,9.36
2019-04-01T16:20:20.488Z,9.32
2019-04-01T16:22:46.822Z,9.19
2019-04-01T16:25:13.497Z,9.06
2019-04-01T16:27:42.820Z,8.91
2019-04-01T16:30:09.326Z,8.82
2019-04-01T16:32:36.252Z,8.79
2019-04-01T16:35:04.216Z,8.82
2019-04-01T16:37:30.465Z,8.76
2019-04-01T16:39:58.399Z,8.73
2019-04-01T16:42:24.543Z,8.80
2019-04-01T16:44:53.974Z,8.75
2019-04-01T16:47:18.837Z,8.71
2019-04-01T16:49:45.086Z,8.60
2019-04-01T16:52:11.537Z,8.56
2019-04-01T16:54:38.126Z,8.46
2019-04-01T16:57:06.172Z,8.54
2019-04-01T16:59:32.555Z,8.58
2019-04-01T17:01:58.813Z,8.58
2019-04-01T17:04:25.053Z,8.58
2019-04-01T17:06:53.199Z,8.48
2019-04-01T17:09:19.459Z,8.35
2019-04-01T17:11:45.696Z,8.29
2019-04-01T17:14:11.945Z,8.31
2019-04-01T17:16:38.617Z,8.29
2019-04-01T17:19:04.805Z,8.25
2019-04-01T17:21:31.066Z,8.17
2019-04-01T17:23:58.404Z,8.13
2019-04-01T17:26:25.516Z,8.10
2019-04-01T17:28:51.768Z,8.04
2019-04-01T17:31:18.004Z,7.99
2019-04-01T17:33:44.264Z,7.93
2019-04-01T17:36:11.165Z,7.94
2019-04-01T17:38:37.666Z,7.87
2019-04-01T17:41:04.190Z,7.76
2019-04-01T17:43:32.252Z,7.66
2019-04-01T17:45:58.499Z,7.58
2019-04-01T17:48:24.664Z,7.42
2019-04-01T17:50:50.824Z,7.31
2019-04-01T17:53:17.068Z,7.14
2019-04-01T17:55:45.528Z,7.05
2019-04-01T17:58:11.495Z,6.95
2019-04-01T18:00:39.575Z,6.85
2019-04-01T18:03:09.189Z,6.72
2019-04-01T18:05:33.843Z,6.65
2019-04-01T18:08:00.004Z,6.50
2019-04-01T18:10:28.042Z,6.37
2019-04-01T18:12:54.643Z,6.22
2019-04-01T18:15:20.854Z,6.04
2019-04-01T18:17:47.155Z,5.93
2019-04-01T18:20:13.393Z,5.82
2019-04-01T18:22:39.632Z,5.72
2019-04-01T18:25:06.255Z,5.67
2019-04-01T18:27:32.375Z,5.58
2019-04-01T18:30:00.352Z,5.53
2019-04-01T18:32:26.674Z,5.47
2019-04-01T18:34:52.910Z,5.37
2019-04-01T18:37:19.182Z,5.27
2019-04-01T18:39:48.470Z,5.18
2019-04-01T18:42:13.588Z,5.09
2019-04-01T18:44:39.811Z,5.02
2019-04-01T18:47:06.003Z,4.93
2019-04-01T18:49:32.275Z,4.81
2019-04-01T18:51:58.575Z,4.72
2019-04-01T18:54:24.902Z,4.61
2019-04-01T18:56:51.137Z,4.48
2019-04-01T18:59:17.382Z,4.41
2019-04-01T19:01:44.208Z,4.35
2019-04-01T19:04:11.931Z,4.31
2019-04-01T19:06:38.230Z,4.25
2019-04-01T19:09:09.354Z,4.15
2019-04-01T19:11:34.858Z,4.08
2019-04-01T19:14:01.271Z,4.03
2019-04-01T19:16:27.554Z,3.99
2019-04-01T19:18:53.675Z,3.95
2019-04-01T19:21:19.847Z,3.91
2019-04-01T19:23:46.082Z,3.85
2019-04-01T19:26:12.224Z,3.78
2019-04-01T19:28:38.414Z,3.76
2019-04-01T19:31:04.554Z,3.70
2019-04-01T19:33:30.714Z,3.67
2019-04-01T19:35:56.860Z,3.64
2019-04-01T19:38:22.998Z,3.58
2019-04-01T19:40:49.168Z,3.52
2019-04-01T19:43:16.351Z,3.52
2019-04-01T19:45:43.181Z,3.41
2019-04-01T19:48:09.317Z,3.35
2019-04-01T19:50:35.471Z,3.35
2019-04-01T19:53:03.681Z,3.28
2019-04-01T19:55:30.075Z,3.21
2019-04-01T19:57:58.333Z,3.20
2019-04-01T20:00:27.936Z,3.16
2019-04-01T20:02:52.958Z,3.09
2019-04-01T20:05:20.185Z,3.00
2019-04-01T20:07:53.242Z,2.94
2019-04-01T20:10:19.536Z,2.91
2019-04-01T20:12:50.691Z,2.89
2019-04-01T20:15:21.042Z,2.81
2019-04-01T20:17:47.491Z,2.78
2019-04-01T20:20:14.857Z,2.74
2019-04-01T20:22:41.318Z,2.73
2019-04-01T20:25:10.928Z,2.72
2019-04-01T20:27:39.277Z,2.69
2019-04-01T20:30:09.120Z,2.66
2019-04-01T20:32:35.492Z,2.60
2019-04-01T20:35:01.627Z,2.59
2019-04-01T20:37:29.111Z,2.56
2019-04-01T20:39:55.641Z,2.56
2019-04-01T20:42:21.885Z,2.55
2019-04-01T20:44:48.019Z,2.49
2019-04-01T20:47:14.174Z,2.46
2019-04-01T20:49:40.319Z,2.46
2019-04-01T20:52:06.451Z,2.42
2019-04-01T20:54:32.617Z,2.38
2019-04-01T20:56:58.776Z,2.34
2019-04-01T20:59:24.932Z,2.31
2019-04-01T21:01:51.066Z,2.29
2019-04-01T21:04:17.106Z,2.26
2019-04-01T21:06:43.226Z,2.18
2019-04-01T21:09:09.454Z,2.16
2019-04-01T21:11:35.611Z,2.14
2019-04-01T21:14:03.094Z,2.14
2019-04-01T21:16:29.381Z,2.10
2019-04-01T21:18:55.514Z,2.06
2019-04-01T21:21:21.708Z,2.02
2019-04-01T21:23:47.843Z,1.99
2019-04-01T21:26:14.022Z,1.93
2019-04-01T21:28:40.155Z,1.90
2019-04-01T21:31:06.355Z,1.86
2019-04-01T21:33:32.588Z,1.86
2019-04-01T21:35:58.719Z,1.87
2019-04-01T21:38:24.862Z,1.89
2019-04-01T21:40:50.989Z,1.90
2019-04-01T21:43:17.227Z,1.85
2019-04-01T21:45:44.925Z,1.81
2019-04-01T21:48:11.243Z,1.73
2019-04-01T21:50:37.472Z,1.71
2019-04-01T21:53:03.607Z,1.69
2019-04-01T21:55:29.743Z,1.65
2019-04-01T21:57:55.876Z,1.64
2019-04-01T22:00:44.956Z,1.62
2019-04-01T22:03:12.306Z,1.56
2019-04-01T22:05:39.348Z,1.50
2019-04-01T22:08:06.276Z,1.61
2019-04-01T22:10:33.354Z,1.61
2019-04-01T22:12:59.486Z,1.58
2019-04-01T22:15:25.622Z,1.55
2019-04-01T22:17:51.778Z,1.52
2019-04-01T22:20:17.915Z,1.53
2019-04-01T22:22:44.169Z,1.54
2019-04-01T22:25:10.338Z,1.55
2019-04-01T22:27:36.470Z,1.53
2019-04-01T22:30:05.988Z,1.51
2019-04-01T22:32:32.122Z,1.49
2019-04-01T22:34:58.265Z,1.45
2019-04-01T22:37:27.360Z,1.42
2019-04-01T22:39:52.548Z,1.35
2019-04-01T22:42:18.723Z,1.29
2019-04-01T22:44:44.844Z,1.25
2019-04-01T22:47:11.008Z,1.22
2019-04-01T22:49:37.157Z,1.19
2019-04-01T22:52:03.273Z,1.19
2019-04-01T22:54:30.218Z,1.19
2019-04-01T22:56:57.295Z,1.18
2019-04-01T22:59:23.578Z,1.15
2019-04-01T23:01:50.016Z,1.14
2019-04-01T23:04:16.165Z,1.13
2019-04-01T23:06:42.327Z,1.09
2019-04-01T23:09:08.448Z,1.10
2019-04-01T23:11:34.678Z,1.08
2019-04-01T23:14:00.734Z,1.00
2019-04-01T23:16:27.221Z,0.98
2019-04-01T23:18:53.361Z,0.95
2019-04-01T23:21:19.519Z,0.90
2019-04-01T23:23:45.578Z,0.85
2019-04-01T23:26:11.619Z,0.83
2019-04-01T23:28:37.828Z,0.81
2019-04-01T23:31:04.067Z,0.77
2019-04-01T23:33:30.222Z,0.74
2019-04-01T23:35:56.507Z,0.74
2019-04-01T23:38:22.630Z,0.73
2019-04-01T23:40:49.681Z,0.73
2019-04-01T23:43:15.844Z,0.73
2019-04-01T23:45:41.983Z,0.71
2019-04-01T23:48:08.124Z,0.70
2019-04-01T23:50:34.286Z,0.64
2019-04-01T23:56:03.651Z,0.60
2019-04-01T23:58:29.911Z,0.59
